Time;durP1;ratioP1;P1;durP2;ratioP2;P2;SDS_P1;SDS_P2;PMS_P1;PMS_P2;Temp;Humidity;BMP_temperature;BMP_pressure;BME280_temperature;BME280_humidity;BME280_pressure;Samples;Min_cycle;Max_cycle;Signal;HPM_P1;HPM_P2
2023/11/07 00:01:41;;;;;;;1.37;1.10;;;9.00;99.90;;;9.67;100.00;97518.00;5029851;28;20465;-83
2023/11/07 00:04:10;;;;;;;1.50;1.10;;;9.10;99.90;;;9.69;100.00;97521.22;5028426;28;20490;-83
2023/11/07 00:06:40;;;;;;;1.90;1.10;;;9.10;99.90;;;9.67;100.00;97525.84;5028178;28;20556;-83
2023/11/07 00:09:12;;;;;;;4.03;1.20;;;9.00;99.90;;;9.67;100.00;97525.84;5028155;28;20470;-83
2023/11/07 00:11:41;;;;;;;2.80;1.10;;;9.00;99.90;;;9.68;100.00;97533.50;5030188;28;20472;-83
2023/11/07 00:14:10;;;;;;;3.93;1.30;;;9.10;99.90;;;9.68;100.00;97527.47;5031198;28;20458;-83
2023/11/07 00:16:41;;;;;;;7.60;1.33;;;9.10;99.90;;;9.68;100.00;97517.03;5027847;28;20492;-83
2023/11/07 00:19:10;;;;;;;8.13;1.33;;;9.10;99.90;;;9.67;100.00;97520.63;5031484;28;20470;-83
2023/11/07 00:21:41;;;;;;;2.10;1.00;;;9.20;99.90;;;9.68;100.00;97523.06;5028410;28;20462;-83
2023/11/07 00:24:11;;;;;;;8.40;1.40;;;9.20;99.90;;;9.68;100.00;97517.03;5029905;28;20450;-83
2023/11/07 00:26:41;;;;;;;3.83;1.60;;;9.20;99.90;;;9.69;100.00;97523.84;5030285;28;20493;-83
2023/11/07 00:29:11;;;;;;;5.60;1.20;;;9.10;99.90;;;9.73;100.00;97530.28;5029985;28;20550;-83
2023/11/07 00:31:41;;;;;;;3.37;1.37;;;9.00;99.90;;;9.74;100.00;97532.72;5029005;28;21070;-82
2023/11/07 00:34:10;;;;;;;1.97;1.23;;;9.10;99.90;;;9.73;100.00;97531.09;5029881;28;20481;-83
2023/11/07 00:36:40;;;;;;;7.90;1.40;;;9.10;99.90;;;9.69;100.00;97523.84;5028980;28;20474;-83
2023/11/07 00:39:11;;;;;;;6.43;1.40;;;9.20;99.90;;;9.67;100.00;97529.25;5026853;28;20466;-83
2023/11/07 00:41:40;;;;;;;4.13;1.87;;;9.10;99.90;;;9.69;100.00;97535.09;5027599;28;20881;-83
2023/11/07 00:44:10;;;;;;;6.13;1.50;;;9.10;99.90;;;9.68;100.00;97532.69;5028956;28;20461;-83
2023/11/07 00:46:39;;;;;;;2.30;1.53;;;9.10;99.90;;;9.66;100.00;97532.06;5027502;28;20510;-82
2023/11/07 00:49:08;;;;;;;4.50;1.83;;;9.00;99.90;;;9.65;100.00;97530.47;5027299;28;20469;-83
2023/11/07 00:51:39;;;;;;;4.27;2.03;;;9.10;99.90;;;9.64;100.00;97537.50;5026262;28;20470;-83
2023/11/07 00:54:12;;;;;;;5.90;1.63;;;9.00;99.90;;;9.65;100.00;97533.06;5027383;28;20557;-83
2023/11/07 00:56:42;;;;;;;5.53;1.50;;;9.00;99.90;;;9.63;100.00;97535.88;5027740;28;20462;-82
2023/11/07 00:59:12;;;;;;;6.50;1.60;;;9.00;99.90;;;9.66;100.00;97532.06;5027947;28;20465;-83
2023/11/07 01:01:41;;;;;;;3.20;1.40;;;9.10;99.90;;;9.63;100.00;97535.06;5027285;28;20458;-83
2023/11/07 01:04:10;;;;;;;3.30;1.73;;;9.00;99.90;;;9.65;100.00;97539.06;5026813;28;21048;-83
2023/11/07 01:06:40;;;;;;;5.20;1.40;;;9.00;99.90;;;9.70;100.00;97543.72;5030112;28;21270;-83
2023/11/07 01:09:12;;;;;;;2.40;1.37;;;8.90;99.90;;;9.69;100.00;97545.53;5029935;28;20461;-83
2023/11/07 01:11:42;;;;;;;4.07;1.90;;;9.00;99.90;;;9.68;100.00;97545.72;5027242;28;20593;-83
2023/11/07 01:14:11;;;;;;;4.47;1.87;;;9.00;99.90;;;9.64;100.00;97542.72;5028319;28;20805;-83
2023/11/07 01:16:41;;;;;;;4.33;1.60;;;9.10;99.90;;;9.63;100.00;97550.72;5029737;28;21008;-83
2023/11/07 01:19:11;;;;;;;2.37;1.50;;;9.20;99.90;;;9.63;100.00;97550.72;5026412;28;20473;-83
2023/11/07 01:21:40;;;;;;;2.20;1.67;;;9.10;99.90;;;9.64;100.00;97547.94;5027935;28;21144;-83
2023/11/07 01:24:12;;;;;;;5.80;1.40;;;9.10;99.90;;;9.61;100.00;97551.72;5030775;28;20494;-83
2023/11/07 01:26:43;;;;;;;3.57;1.50;;;9.00;99.90;;;9.62;100.00;97552.50;5027162;28;20924;-83
2023/11/07 01:29:15;;;;;;;1.93;1.37;;;9.00;99.90;;;9.63;100.00;97550.72;5031340;28;20467;-83
2023/11/07 01:31:43;;;;;;;6.80;1.63;;;8.90;99.90;;;9.62;100.00;97549.91;5028975;28;20477;-83
2023/11/07 01:34:14;;;;;;;4.03;1.67;;;9.00;99.90;;;9.58;100.00;97549.47;5028814;28;20466;-83
2023/11/07 01:36:44;;;;;;;6.50;1.67;;;8.90;99.90;;;9.59;100.00;97550.28;5027898;28;21451;-83
2023/11/07 01:39:19;;;;;;;4.17;1.50;;;8.80;99.90;;;9.60;100.00;97546.69;5028792;28;20540;-83
2023/11/07 01:41:49;;;;;;;2.30;1.63;;;9.00;99.90;;;9.60;100.00;97544.91;5028301;28;20520;-83
2023/11/07 01:44:19;;;;;;;1.60;1.20;;;8.90;99.90;;;9.59;100.00;97542.47;5027057;28;20776;-83
2023/11/07 01:46:49;;;;;;;10.20;1.60;;;8.90;99.90;;;9.59;100.00;97545.06;5027281;28;20573;-83
2023/11/07 01:49:20;;;;;;;4.07;1.47;;;9.00;99.90;;;9.54;100.00;97548.25;5027047;28;20825;-83
2023/11/07 01:51:50;;;;;;;2.70;1.23;;;9.00;99.90;;;9.57;100.00;97542.69;5025859;28;20457;-82
2023/11/07 01:54:26;;;;;;;2.80;1.67;;;9.00;99.90;;;9.57;100.00;97534.84;5027774;28;20489;-83
2023/11/07 01:56:57;;;;;;;4.63;1.40;;;9.00;99.90;;;9.58;100.00;97544.25;5026843;28;20458;-83
2023/11/07 01:59:27;;;;;;;3.30;1.73;;;9.00;99.90;;;9.55;100.00;97539.44;5026377;28;20473;-83
2023/11/07 02:02:01;;;;;;;1.60;1.20;;;8.90;99.90;;;9.60;100.00;97547.50;5027554;28;20465;-83
2023/11/07 02:04:30;;;;;;;5.17;1.40;;;8.90;99.90;;;9.60;100.00;97533.66;5027092;28;21322;-83
2023/11/07 02:07:00;;;;;;;6.17;1.80;;;8.90;99.90;;;9.64;100.00;97536.69;5026370;28;20564;-83
2023/11/07 02:09:32;;;;;;;1.80;1.37;;;8.90;99.90;;;9.63;100.00;97535.06;5028722;28;20473;-82
2023/11/07 02:12:02;;;;;;;4.53;1.73;;;9.00;99.90;;;9.61;100.00;97543.09;5027087;28;20515;-83
2023/11/07 02:14:35;;;;;;;1.50;1.37;;;8.90;99.90;;;9.61;100.00;97543.09;5027440;28;20454;-83
2023/11/07 02:17:06;;;;;;;1.80;1.37;;;8.90;99.90;;;9.60;100.00;97541.47;5028589;28;20458;-83
2023/11/07 02:19:35;;;;;;;5.50;1.40;;;9.00;99.90;;;9.60;100.00;97537.06;5028465;28;20988;-83
2023/11/07 02:22:10;;;;;;;3.30;1.60;;;9.00;99.90;;;9.58;100.00;97543.44;5027644;28;20466;-83
2023/11/07 02:24:42;;;;;;;2.47;1.50;;;9.00;99.90;;;9.51;100.00;97538.19;5026877;28;20531;-83
2023/11/07 02:27:11;;;;;;;5.23;1.80;;;8.90;99.90;;;9.57;100.00;97540.06;5025746;28;20501;-84
2023/11/07 02:29:42;;;;;;;7.60;1.37;;;8.90;99.90;;;9.57;100.00;97537.44;5027146;28;21043;-83
2023/11/07 02:32:13;;;;;;;2.50;1.57;;;8.90;99.90;;;9.57;100.00;97537.44;5026405;28;20481;-83
2023/11/07 02:34:43;;;;;;;6.27;1.60;;;8.90;99.90;;;9.57;100.00;97534.84;5030349;28;20457;-83
2023/11/07 02:37:14;;;;;;;9.20;2.00;;;8.90;99.90;;;9.60;100.00;97541.47;5028418;28;20634;-83
2023/11/07 02:39:45;;;;;;;2.83;1.57;;;8.90;99.90;;;9.58;100.00;97533.00;5026370;28;20482;-83
2023/11/07 02:42:15;;;;;;;4.13;1.40;;;9.00;99.90;;;9.59;100.00;97534.63;5025304;28;20990;-83
2023/11/07 02:44:46;;;;;;;2.63;1.57;;;8.90;99.90;;;9.59;100.00;97529.41;5024719;28;20466;-83
2023/11/07 02:47:15;;;;;;;9.13;2.17;;;8.90;99.90;;;9.59;100.00;97529.41;5025876;28;20575;-83
2023/11/07 02:49:45;;;;;;;2.60;1.50;;;8.90;99.90;;;9.58;100.00;97528.59;5024463;28;20482;-83
2023/11/07 02:52:15;;;;;;;5.40;1.77;;;9.00;99.90;;;9.60;100.00;97526.63;5025975;28;20571;-83
2023/11/07 02:54:47;;;;;;;5.40;1.60;;;8.90;99.90;;;9.54;100.00;97527.38;5026072;28;20457;-83
2023/11/07 02:57:17;;;;;;;2.43;1.87;;;8.90;99.90;;;9.52;100.00;97524.16;5026743;28;20476;-82
2023/11/07 02:59:49;;;;;;;2.60;1.60;;;9.00;99.90;;;9.55;100.00;97526.38;5029776;28;20518;-83
2023/11/07 03:02:21;;;;;;;3.00;1.43;;;8.90;99.90;;;9.50;100.00;97525.38;5029483;28;20465;-83
2023/11/07 03:04:51;;;;;;;3.43;1.73;;;9.00;99.90;;;9.50;100.00;97525.38;5029192;28;20487;-83
2023/11/07 03:07:22;;;;;;;6.13;2.00;;;8.90;99.90;;;9.49;100.00;97527.16;5033934;28;20516;-83
2023/11/07 03:09:53;;;;;;;7.73;1.40;;;8.90;99.90;;;9.52;100.00;97524.16;5030705;28;20876;-83
2023/11/07 03:12:22;;;;;;;2.70;1.80;;;8.80;99.90;;;9.45;100.00;97517.28;5027791;28;20462;-83
2023/11/07 03:14:54;;;;;;;2.60;1.50;;;8.90;99.90;;;9.46;100.00;97516.31;5030876;28;20976;-83
2023/11/07 03:17:24;;;;;;;5.07;1.80;;;8.90;99.90;;;9.46;100.00;97524.13;5028390;28;20461;-83
2023/11/07 03:19:55;;;;;;;6.80;2.07;;;8.90;99.90;;;9.50;100.00;97510.50;5029290;28;20560;-83
2023/11/07 03:22:26;;;;;;;5.53;1.83;;;8.90;99.90;;;9.48;100.00;97509.88;5029312;28;20466;-83
2023/11/07 03:24:58;;;;;;;5.33;1.80;;;8.80;99.90;;;9.48;100.00;97514.28;5029080;28;20469;-83
2023/11/07 03:27:27;;;;;;;6.07;1.97;;;8.80;99.90;;;9.48;100.00;97515.09;5031269;28;20910;-83
2023/11/07 03:29:59;;;;;;;9.77;1.80;;;8.70;99.90;;;9.44;100.00;97506.03;5030889;28;20487;-83
2023/11/07 03:32:29;;;;;;;3.70;1.77;;;8.80;99.90;;;9.44;100.00;97508.66;5029500;28;20500;-86
2023/11/07 03:35:01;;;;;;;2.93;2.00;;;8.70;99.90;;;9.41;100.00;97503.81;5031022;28;21038;-83
2023/11/07 03:37:32;;;;;;;3.53;1.70;;;8.80;99.90;;;9.41;100.00;97509.03;5030237;28;20544;-83
2023/11/07 03:40:06;;;;;;;4.33;1.80;;;8.90;99.90;;;9.40;100.00;97510.06;5028573;28;20473;-83
2023/11/07 03:42:35;;;;;;;3.03;1.57;;;8.80;99.90;;;9.42;100.00;97508.06;5030987;28;20567;-83
2023/11/07 03:45:08;;;;;;;2.90;1.87;;;8.80;99.90;;;9.42;100.00;97513.28;5031419;28;21229;-83
2023/11/07 03:47:38;;;;;;;3.47;1.50;;;8.80;99.90;;;9.41;100.00;97511.66;5031303;28;20593;-83
2023/11/07 03:50:10;;;;;;;5.90;2.53;;;8.90;99.90;;;9.44;100.00;97516.47;5028828;28;20858;-83
2023/11/07 03:52:41;;;;;;;2.17;1.60;;;8.80;99.90;;;9.45;100.00;97520.72;5028527;28;20466;-83
2023/11/07 03:55:13;;;;;;;2.60;1.40;;;8.80;99.90;;;9.44;100.00;97518.31;5029690;28;20455;-83
2023/11/07 03:57:43;;;;;;;3.00;1.67;;;8.80;99.90;;;9.43;100.00;97514.09;5030642;28;21076;-83
2023/11/07 04:00:15;;;;;;;2.10;1.70;;;8.90;99.90;;;9.38;100.00;97517.25;5028662;28;20450;-83
2023/11/07 04:02:46;;;;;;;4.33;1.93;;;8.90;99.90;;;9.38;100.00;97522.47;5031082;28;20508;-83
2023/11/07 04:05:17;;;;;;;4.37;2.30;;;8.90;99.90;;;9.39;100.00;97526.72;5028750;28;20458;-83
2023/11/07 04:07:46;;;;;;;2.13;1.53;;;8.90;99.90;;;9.38;100.00;97532.91;5025058;28;20470;-83
2023/11/07 04:10:18;;;;;;;3.10;1.40;;;8.90;99.90;;;9.38;100.00;97532.91;5025645;28;20458;-83
2023/11/07 04:12:48;;;;;;;3.57;1.97;;;8.90;99.90;;;9.39;100.00;97526.72;5027709;28;20473;-83
2023/11/07 04:15:17;;;;;;;10.17;1.97;;;8.80;99.90;;;9.41;100.00;97532.53;5031494;28;20869;-82
2023/11/07 04:17:47;;;;;;;6.10;1.87;;;8.80;99.90;;;9.40;100.00;97530.94;5024804;28;20462;-83
2023/11/07 04:20:18;;;;;;;2.23;1.90;;;8.80;99.90;;;9.39;100.00;97534.53;5025709;28;20465;-82
2023/11/07 04:22:48;;;;;;;8.30;2.23;;;8.70;99.90;;;9.39;100.00;97526.72;5024512;28;20462;-82
2023/11/07 04:25:19;;;;;;;11.70;5.70;;;8.80;99.90;;;9.38;100.00;97532.91;5024370;28;20458;-84
2023/11/07 04:27:49;;;;;;;3.03;1.77;;;8.70;99.90;;;9.39;100.00;97533.72;5027557;28;20482;-84
2023/11/07 04:30:22;;;;;;;6.13;2.10;;;8.80;99.90;;;9.33;100.00;97545.75;5025669;28;20470;-78
2023/11/07 04:32:52;;;;;;;6.60;1.83;;;8.70;99.90;;;9.34;100.00;97536.09;5028594;28;20478;-78
2023/11/07 04:35:21;;;;;;;4.80;1.80;;;8.70;99.90;;;9.32;100.00;97540.72;5028971;28;20512;-78
2023/11/07 04:37:53;;;;;;;4.77;1.90;;;8.70;99.90;;;9.32;100.00;97536.31;5027894;28;20878;-77
2023/11/07 04:40:26;;;;;;;2.00;1.80;;;8.80;99.90;;;9.34;100.00;97536.09;5029205;28;20968;-78
2023/11/07 04:42:56;;;;;;;6.77;2.90;;;8.80;99.90;;;9.36;100.00;97540.16;5031982;28;20453;-78
2023/11/07 04:45:27;;;;;;;3.27;2.00;;;8.70;99.90;;;9.36;100.00;97532.31;5029793;28;20474;-78
2023/11/07 04:47:57;;;;;;;3.00;1.60;;;8.70;99.90;;;9.41;100.00;97532.53;5028993;28;20473;-77
2023/11/07 04:50:27;;;;;;;4.73;1.83;;;8.70;99.90;;;9.37;100.00;97531.28;5029458;28;20498;-78
2023/11/07 04:52:57;;;;;;;1.67;1.50;;;8.70;99.90;;;9.33;100.00;97526.69;5027837;28;20833;-78
2023/11/07 04:55:29;;;;;;;2.00;1.60;;;8.60;99.90;;;9.26;100.00;97521.41;5030233;28;20466;-78
2023/11/07 04:57:59;;;;;;;2.43;1.50;;;8.60;99.90;;;9.27;100.00;97520.41;5028417;28;20477;-78
2023/11/07 05:00:29;;;;;;;4.30;1.47;;;8.60;99.90;;;9.31;100.00;97513.00;5025197;28;20466;-81
2023/11/07 05:03:01;;;;;;;13.70;3.43;;;8.60;99.90;;;9.24;100.00;97520.78;5027844;28;20470;-79
2023/11/07 05:05:32;;;;;;;1.90;1.60;;;8.60;99.90;;;9.25;100.00;97522.41;5024902;28;20556;-79
2023/11/07 05:08:01;;;;;;;1.40;1.30;;;8.70;99.90;;;9.28;100.00;97519.41;5026294;28;20486;-79
2023/11/07 05:10:33;;;;;;;3.37;1.80;;;8.70;99.90;;;9.26;100.00;97521.41;5025624;28;20454;-78
2023/11/07 05:13:03;;;;;;;5.60;2.90;;;8.70;99.90;;;9.28;100.00;97518.59;5028013;28;20995;-78
2023/11/07 05:15:34;;;;;;;2.27;1.40;;;8.80;99.90;;;9.31;100.00;97526.84;5026119;28;21144;-78
2023/11/07 05:18:04;;;;;;;3.10;1.37;;;8.70;99.90;;;9.27;100.00;97524.81;5028904;28;20523;-79
2023/11/07 05:20:34;;;;;;;2.60;1.50;;;8.70;99.90;;;9.25;100.00;97532.03;5026089;28;20462;-78
2023/11/07 05:23:05;;;;;;;2.70;1.40;;;8.60;99.90;;;9.25;100.00;97530.22;5028549;28;20466;-79
2023/11/07 05:25:36;;;;;;;6.10;1.37;;;8.70;99.90;;;9.30;100.00;97530.44;5025054;28;20466;-78
2023/11/07 05:28:05;;;;;;;2.60;1.30;;;8.70;99.90;;;9.30;100.00;97530.44;5023517;28;21110;-79
2023/11/07 05:30:34;;;;;;;11.20;6.07;;;8.70;99.90;;;9.29;100.00;97538.47;5024338;28;20474;-79
2023/11/07 05:33:05;;;;;;;3.20;2.03;;;8.60;99.90;;;9.27;100.00;97535.25;5027817;28;21030;-78
2023/11/07 05:35:36;;;;;;;4.83;2.03;;;8.70;99.90;;;9.27;100.00;97525.63;5028063;28;20489;-80
2023/11/07 05:38:06;;;;;;;2.40;2.03;;;8.60;99.90;;;9.26;100.00;97528.44;5025167;28;20468;-80
2023/11/07 05:40:36;;;;;;;3.30;2.37;;;8.60;99.90;;;9.17;100.00;97524.34;5027296;28;21196;-79
2023/11/07 05:43:08;;;;;;;6.03;2.13;;;8.60;99.90;;;9.16;100.00;97527.97;5027098;28;20466;-79
2023/11/07 05:45:38;;;;;;;2.63;2.03;;;8.60;99.90;;;9.23;100.00;97524.41;5027465;28;20489;-78
2023/11/07 05:48:10;;;;;;;3.93;2.20;;;8.60;99.90;;;9.24;100.00;97526.00;5028566;28;20460;-78
2023/11/07 05:50:40;;;;;;;5.10;2.60;;;8.70;99.90;;;9.27;100.00;97520.41;5028558;28;21190;-78
2023/11/07 05:53:09;;;;;;;3.63;1.90;;;8.70;99.90;;;9.31;100.00;97532.06;5028742;28;20489;-78
2023/11/07 05:55:42;;;;;;;1.60;1.47;;;8.60;99.90;;;9.25;100.00;97535.44;5028598;28;20545;-78
2023/11/07 05:58:13;;;;;;;5.67;2.60;;;8.60;99.90;;;9.27;100.00;97530.84;5029120;28;20454;-78
2023/11/07 06:00:44;;;;;;;4.57;2.10;;;8.60;99.90;;;9.26;100.00;97529.25;5027865;28;20497;-78
2023/11/07 06:03:13;;;;;;;10.00;2.50;;;8.60;99.90;;;9.29;100.00;97526.25;5028707;28;20466;-78
2023/11/07 06:05:42;;;;;;;3.77;2.03;;;8.60;99.90;;;9.29;100.00;97528.84;5029158;28;20469;-78
2023/11/07 06:08:15;;;;;;;3.30;1.90;;;8.70;99.90;;;9.31;100.00;97531.25;5029374;28;20462;-78
2023/11/07 06:10:47;;;;;;;2.20;1.90;;;8.70;99.90;;;9.25;100.00;97530.22;5030288;28;20465;-78
2023/11/07 06:13:17;;;;;;;4.30;1.90;;;8.60;99.90;;;9.21;100.00;97531.59;5027928;28;20457;-79
2023/11/07 06:15:47;;;;;;;1.83;1.37;;;8.50;99.90;;;9.20;100.00;97527.38;5028532;28;20454;-79
2023/11/07 06:18:18;;;;;;;1.63;1.53;;;8.50;99.90;;;9.22;100.00;97525.41;5026914;28;20843;-78
2023/11/07 06:20:49;;;;;;;3.90;1.80;;;8.60;99.90;;;9.27;100.00;97530.84;5027534;28;20961;-78
2023/11/07 06:23:19;;;;;;;4.57;1.87;;;8.50;99.90;;;9.28;100.00;97527.25;5028759;28;20481;-78
2023/11/07 06:25:51;;;;;;;1.87;1.77;;;8.60;99.90;;;9.28;100.00;97532.47;5027200;28;20523;-78
2023/11/07 06:28:22;;;;;;;2.60;1.80;;;8.70;99.90;;;9.28;100.00;97532.47;5026663;28;20566;-78
2023/11/07 06:30:52;;;;;;;2.27;1.50;;;8.70;99.90;;;9.25;100.00;97542.47;5026632;28;20473;-78
2023/11/07 06:33:23;;;;;;;3.00;1.60;;;8.60;99.90;;;9.29;100.00;97541.91;5028516;28;20531;-79
2023/11/07 06:35:54;;;;;;;1.50;1.30;;;8.60;99.90;;;9.25;100.00;97548.50;5031908;28;20550;-79
2023/11/07 06:38:25;;;;;;;6.10;1.30;;;8.70;99.90;;;9.26;100.00;97550.13;5031283;28;20638;-79
2023/11/07 06:40:56;;;;;;;2.90;1.20;;;8.60;99.90;;;9.26;100.00;97550.13;5029171;28;20979;-79
2023/11/07 06:43:27;;;;;;;2.10;1.23;;;8.70;99.90;;;9.26;100.00;97549.31;5031898;28;20483;-79
2023/11/07 06:45:57;;;;;;;5.53;1.67;;;8.70;99.90;;;9.30;100.00;97559.16;5033086;28;20487;-78
2023/11/07 06:48:28;;;;;;;2.40;1.20;;;8.70;99.90;;;9.28;100.00;97563.75;5031775;28;20572;-79
2023/11/07 06:51:01;;;;;;;4.20;1.27;;;8.60;99.90;;;9.25;100.00;97558.94;5032700;28;20581;-79
2023/11/07 06:53:31;;;;;;;1.67;1.17;;;8.50;99.90;;;9.25;100.00;97556.31;5031292;28;20465;-78
2023/11/07 06:56:03;;;;;;;1.97;1.30;;;8.60;99.90;;;9.27;100.00;97562.13;5032624;28;20957;-79
2023/11/07 06:58:35;;;;;;;1.40;1.30;;;8.50;99.90;;;9.24;100.00;97562.53;5032925;28;20462;-78
2023/11/07 07:01:06;;;;;;;1.60;1.13;;;8.50;99.90;;;9.28;100.00;97557.72;5034512;28;20462;-78
2023/11/07 07:03:40;;;;;;;1.60;1.23;;;8.50;99.90;;;9.27;100.00;97564.75;5033945;28;20981;-78
2023/11/07 07:06:12;;;;;;;3.53;1.40;;;8.60;99.90;;;9.29;100.00;97561.97;5032466;28;20471;-79
2023/11/07 07:08:43;;;;;;;1.30;0.90;;;8.60;99.90;;;9.30;100.00;97568.81;5034304;28;20473;-78
2023/11/07 07:11:15;;;;;;;11.93;1.50;;;8.60;99.90;;;9.32;100.00;97561.56;5030777;28;20469;-78
2023/11/07 07:13:44;;;;;;;1.30;1.20;;;8.70;99.90;;;9.33;100.00;97566.63;5032157;28;20480;-79
2023/11/07 07:16:15;;;;;;;3.20;1.60;;;8.80;99.90;;;9.34;100.00;97572.63;5034646;28;20465;-78
2023/11/07 07:18:46;;;;;;;4.10;1.33;;;8.80;99.90;;;9.32;100.00;97569.41;5031638;28;21014;-79
2023/11/07 07:21:16;;;;;;;2.23;1.60;;;8.70;99.90;;;9.33;100.00;97574.44;5032643;28;20493;-78
2023/11/07 07:23:47;;;;;;;1.70;1.50;;;8.70;99.90;;;9.32;100.00;97575.44;5030952;28;20535;-78
2023/11/07 07:26:22;;;;;;;1.57;1.47;;;8.80;99.90;;;9.32;100.00;97578.03;5033424;28;20470;-78
2023/11/07 07:28:53;;;;;;;1.90;1.80;;;8.80;99.90;;;9.30;100.00;97577.41;5032422;28;20457;-78
2023/11/07 07:31:27;;;;;;;3.03;1.50;;;8.70;99.90;;;9.31;100.00;97581.63;5029526;28;20520;-78
2023/11/07 07:33:58;;;;;;;2.90;2.03;;;8.70;99.90;;;9.25;100.00;97582.41;5030886;28;20579;-78
2023/11/07 07:36:27;;;;;;;3.47;1.60;;;8.70;99.90;;;9.27;100.00;97588.22;5031152;28;20566;-80
2023/11/07 07:38:58;;;;;;;2.30;1.63;;;8.70;99.90;;;9.32;100.00;97596.31;5032547;28;20496;-78
2023/11/07 07:41:31;;;;;;;1.93;1.43;;;8.70;99.90;;;9.33;100.00;97586.69;5030261;28;20556;-78
2023/11/07 07:44:03;;;;;;;3.63;1.83;;;8.70;99.90;;;9.32;100.00;97591.09;5032818;28;20490;-78
2023/11/07 07:46:34;;;;;;;4.60;1.80;;;8.70;99.90;;;9.31;100.00;97594.69;5030191;28;20982;-79
2023/11/07 07:49:10;;;;;;;4.03;1.80;;;8.60;99.90;;;9.27;100.00;97597.84;5033285;28;20476;-78
2023/11/07 07:51:42;;;;;;;1.57;1.47;;;8.70;99.90;;;9.34;100.00;97604.75;5032727;28;20465;-79
2023/11/07 07:54:13;;;;;;;2.37;1.53;;;8.70;99.90;;;9.37;100.00;97600.97;5034346;28;20469;-79
2023/11/07 07:57:08;;;;;;;2.37;1.57;;;8.80;99.90;;;9.41;100.00;97600.38;5032178;28;20927;-78
2023/11/07 07:59:40;;;;;;;1.23;1.13;;;8.90;99.90;;;9.44;100.00;97600.00;5032356;28;20472;-78
2023/11/07 08:02:12;;;;;;;1.57;1.47;;;8.90;99.90;;;9.42;100.00;97612.44;5029615;28;20461;-78
2023/11/07 08:04:43;;;;;;;1.50;1.40;;;8.80;99.90;;;9.38;100.00;97605.16;5033256;28;20848;-78
2023/11/07 08:07:16;;;;;;;3.10;1.50;;;8.70;99.90;;;9.37;100.00;97609.56;5033678;28;20474;-78
2023/11/07 08:09:49;;;;;;;1.37;1.27;;;8.60;99.90;;;9.44;100.00;97607.81;5033477;28;20470;-78
2023/11/07 08:12:21;;;;;;;1.20;1.10;;;8.80;99.90;;;9.47;100.00;97607.47;5034236;28;20462;-78
2023/11/07 08:14:53;;;;;;;2.23;1.30;;;8.80;99.90;;;9.55;100.00;97612.50;5031680;28;20921;-80
2023/11/07 08:17:23;;;;;;;1.73;1.50;;;8.90;99.90;;;9.56;100.00;97608.91;5029740;28;20457;-80
2023/11/07 08:19:52;;;;;;;2.50;1.20;;;8.90;99.90;;;9.57;100.00;97612.34;5030964;28;20555;-79
2023/11/07 08:22:22;;;;;;;1.57;1.30;;;9.00;99.90;;;9.60;100.00;97610.16;5030960;28;20474;-80
2023/11/07 08:24:52;;;;;;;1.93;1.40;;;9.00;99.90;;;9.64;100.00;97615.00;5030098;28;20548;-79
2023/11/07 08:27:25;;;;;;;4.17;1.40;;;8.90;99.90;;;9.65;100.00;97616.59;5029901;28;20465;-79
2023/11/07 08:29:56;;;;;;;2.20;1.50;;;8.90;99.90;;;9.58;100.00;97625.19;5029515;28;21161;-80
2023/11/07 08:32:29;;;;;;;1.47;1.37;;;8.80;99.90;;;9.61;100.00;97619.56;5029096;28;20485;-79
2023/11/07 08:35:05;;;;;;;1.40;1.30;;;9.00;99.90;;;9.60;100.00;97620.59;5031350;28;20465;-79
2023/11/07 08:37:35;;;;;;;3.23;1.50;;;9.10;99.90;;;9.65;100.00;97633.06;5031256;28;20468;-79
2023/11/07 08:40:08;;;;;;;1.90;1.27;;;9.00;99.90;;;9.64;100.00;97628.03;5030184;28;20465;-80
2023/11/07 08:42:43;;;;;;;1.27;1.10;;;9.10;99.90;;;9.66;100.00;97636.47;5031089;28;20490;-80
2023/11/07 08:45:18;;;;;;;1.33;1.23;;;9.10;99.90;;;9.67;100.00;97638.91;5031762;28;20480;-79
2023/11/07 08:47:50;;;;;;;1.93;1.37;;;9.10;99.90;;;9.65;100.00;97638.28;5028248;28;20485;-81
2023/11/07 08:50:20;;;;;;;1.67;1.40;;;9.10;99.90;;;9.67;100.00;97636.28;5030399;28;21060;-79
2023/11/07 08:52:51;;;;;;;1.50;1.10;;;9.00;99.90;;;9.72;100.00;97635.72;5028937;28;20462;-79
2023/11/07 08:55:21;;;;;;;1.33;1.23;;;9.10;99.90;;;9.72;100.00;97641.72;5030684;28;20469;-80
2023/11/07 08:57:52;;;;;;;3.03;1.57;;;9.10;99.90;;;9.75;100.00;97656.22;5029920;28;21016;-79
2023/11/07 09:00:22;;;;;;;2.00;1.17;;;9.20;99.90;;;9.77;100.00;97651.63;5030102;28;20488;-79
2023/11/07 09:02:54;;;;;;;1.30;1.00;;;9.20;99.90;;;9.75;100.00;97651.81;5033021;28;20465;-80
2023/11/07 09:05:26;;;;;;;1.13;0.97;;;9.10;99.90;;;9.76;100.00;97655.22;5030154;28;20464;-79
2023/11/07 09:07:56;;;;;;;1.07;0.97;;;9.10;99.90;;;9.79;100.00;97654.84;5029823;28;20547;-79
2023/11/07 09:10:28;;;;;;;1.20;0.93;;;9.20;99.90;;;9.78;100.00;97650.63;5029734;28;20942;-80
2023/11/07 09:13:02;;;;;;;2.20;1.10;;;9.10;99.90;;;9.78;100.00;97663.69;5028502;28;20473;-80
2023/11/07 09:15:31;;;;;;;3.00;1.10;;;9.10;99.90;;;9.79;100.00;97657.47;5028381;28;20484;-79
2023/11/07 09:18:01;;;;;;;2.60;1.20;;;9.00;99.90;;;9.77;100.00;97662.06;5030267;28;20457;-79
2023/11/07 09:20:34;;;;;;;1.17;0.90;;;9.00;99.90;;;9.83;100.00;97669.13;5029551;28;20457;-80
2023/11/07 09:23:04;;;;;;;1.77;0.97;;;9.10;99.90;;;9.83;100.00;97661.28;5027983;28;20485;-79
2023/11/07 09:25:35;;;;;;;1.27;0.90;;;9.10;99.90;;;9.84;100.00;97675.97;5029805;28;20457;-79
2023/11/07 09:28:07;;;;;;;2.17;0.90;;;9.20;99.90;;;9.74;100.00;97678.91;5029212;28;20466;-79
2023/11/07 09:30:37;;;;;;;0.90;0.80;;;9.00;99.90;;;9.80;100.00;97672.13;5031082;28;21034;-79
2023/11/07 09:33:07;;;;;;;0.80;0.80;;;9.10;99.90;;;9.84;100.00;97681.19;5031432;28;20469;-79
2023/11/07 09:35:40;;;;;;;1.00;0.90;;;9.10;99.90;;;9.90;100.00;97683.03;5035262;28;20460;-80
2023/11/07 09:38:11;;;;;;;1.10;1.00;;;9.20;99.90;;;9.93;100.00;97677.41;5030811;28;20470;-79
2023/11/07 09:40:40;;;;;;;1.00;0.90;;;9.20;99.90;;;9.97;100.00;97676.84;5030653;28;20453;-79
2023/11/07 09:43:12;;;;;;;1.90;0.90;;;9.20;99.90;;;10.01;100.00;97683.31;5031723;28;20470;-80
2023/11/07 09:45:44;;;;;;;0.93;0.83;;;9.30;99.90;;;10.04;100.00;97677.69;5030533;28;20458;-79
2023/11/07 09:48:14;;;;;;;1.00;0.83;;;9.40;99.90;;;10.07;100.00;97684.34;5031634;28;20576;-79
2023/11/07 09:50:44;;;;;;;2.53;1.37;;;9.40;99.90;;;10.12;100.00;97687.19;5031938;28;20485;-79
2023/11/07 09:53:20;;;;;;;1.40;1.00;;;9.50;99.90;;;10.16;100.00;97682.41;5029170;28;20458;-78
2023/11/07 09:55:52;;;;;;;4.27;0.70;;;9.40;99.90;;;10.22;100.00;97687.66;5030865;28;20983;-78
2023/11/07 09:58:30;;;;;;;1.40;1.00;;;9.50;99.90;;;10.16;100.00;97683.22;5028503;28;20494;-78
2023/11/07 10:01:01;;;;;;;1.00;0.80;;;9.50;99.90;;;10.17;100.00;97684.03;5027419;28;20463;-78
2023/11/07 10:03:33;;;;;;;1.10;1.00;;;9.60;99.90;;;10.18;100.00;97691.66;5029070;28;20466;-79
2023/11/07 10:06:03;;;;;;;1.17;0.90;;;9.50;99.90;;;10.14;100.00;97690.44;5028741;28;20468;-78
2023/11/07 10:08:33;;;;;;;1.13;0.80;;;9.50;99.90;;;10.19;100.00;97688.06;5027609;28;20472;-78
2023/11/07 10:11:11;;;;;;;3.67;1.20;;;9.50;99.90;;;10.25;100.00;97687.28;5027514;28;20493;-78
2023/11/07 10:14:01;;;;;;;1.43;0.90;;;9.50;99.90;;;10.23;100.00;97689.28;5027891;28;20468;-78
2023/11/07 10:16:38;;;;;;;1.10;0.83;;;9.60;99.90;;;10.23;100.00;97691.91;5027742;28;20482;-78
2023/11/07 10:19:16;;;;;;;2.00;1.00;;;9.50;99.90;;;10.24;100.00;97696.09;5029946;28;20476;-78
2023/11/07 10:21:47;;;;;;;6.23;0.80;;;9.70;99.90;;;10.31;100.00;97702.19;5029297;28;20551;-78
2023/11/07 10:24:16;;;;;;;1.30;0.87;;;9.60;99.90;;;10.25;100.00;97687.28;5030871;28;20504;-78
2023/11/07 10:26:58;;;;;;;0.80;0.70;;;9.50;99.90;;;10.30;100.00;97700.59;5030374;28;20530;-78
2023/11/07 10:29:31;;;;;;;1.00;0.80;;;9.60;99.90;;;10.30;100.00;97697.97;5028380;28;20490;-78
2023/11/07 10:32:12;;;;;;;2.60;0.90;;;9.60;99.90;;;10.34;100.00;97696.59;5028958;28;20494;-78
2023/11/07 10:34:41;;;;;;;2.90;0.70;;;9.80;99.90;;;10.36;100.00;97699.81;5026896;28;20470;-78
2023/11/07 10:37:11;;;;;;;2.03;1.23;;;9.70;99.90;;;10.37;100.00;97701.44;5028586;28;20508;-78
2023/11/07 10:39:41;;;;;;;1.57;0.80;;;9.80;99.90;;;10.38;100.00;97697.78;5028246;28;20798;-78
2023/11/07 10:42:46;;;;;;;1.80;1.00;;;9.90;99.90;;;10.41;100.00;97701.84;5028483;28;20551;-78